createdAt,value
2019-04-06T00:00:52.698Z,4.38
2019-04-06T00:06:02.026Z,4.75
2019-04-06T00:11:11.218Z,4.55
2019-04-06T00:16:23.638Z,4.60
2019-04-06T00:21:22.732Z,4.31
2019-04-06T00:26:31.829Z,4.74
2019-04-06T00:31:40.971Z,4.67
2019-04-06T00:36:50.050Z,5.06
2019-04-06T00:41:59.189Z,4.44
2019-04-06T00:47:08.292Z,4.91
2019-04-06T00:52:17.424Z,5.01
2019-04-06T00:57:26.518Z,4.82
2019-04-06T01:02:35.839Z,4.99
2019-04-06T01:07:45.162Z,5.67
2019-04-06T01:12:54.300Z,5.16
2019-04-06T01:18:03.387Z,5.82
2019-04-06T01:23:12.535Z,5.29
2019-04-06T01:28:21.636Z,5.91
2019-04-06T01:33:30.774Z,5.86
2019-04-06T01:38:39.879Z,5.63
2019-04-06T01:43:49.038Z,5.61
2019-04-06T01:48:58.131Z,5.59
2019-04-06T01:54:07.260Z,4.95
2019-04-06T01:59:16.384Z,6.32
2019-04-06T02:04:25.566Z,5.68
2019-04-06T02:09:34.655Z,6.04
2019-04-06T02:14:43.770Z,5.75
2019-04-06T02:19:52.952Z,5.64
2019-04-06T02:25:02.022Z,6.14
2019-04-06T02:30:11.211Z,6.89
2019-04-06T02:35:20.282Z,7.03
2019-04-06T02:40:29.223Z,6.92
2019-04-06T02:45:38.504Z,7.24
2019-04-06T02:50:47.568Z,6.66
2019-04-06T02:55:56.682Z,6.29
2019-04-06T03:01:05.734Z,7.21
2019-04-06T03:06:14.862Z,6.97
2019-04-06T03:11:23.930Z,6.61
2019-04-06T03:16:33.036Z,7.29
2019-04-06T03:21:42.089Z,7.43
2019-04-06T03:27:01.088Z,7.07
2019-04-06T03:31:59.799Z,7.41
2019-04-06T03:37:09.111Z,7.26
2019-04-06T03:42:18.168Z,7.96
2019-04-06T03:47:27.274Z,7.88
2019-04-06T03:52:36.410Z,8.38
2019-04-06T03:57:45.523Z,8.40
2019-04-06T04:02:54.869Z,7.70
2019-04-06T04:08:03.315Z,8.58
2019-04-06T04:13:12.482Z,8.67
2019-04-06T04:18:21.663Z,9.16
2019-04-06T04:23:30.713Z,8.29
2019-04-06T04:28:39.890Z,7.51
2019-04-06T04:33:49.132Z,8.69
2019-04-06T04:38:58.332Z,8.57
2019-04-06T04:44:06.749Z,8.41
2019-04-06T04:49:16.219Z,7.53
2019-04-06T04:54:25.297Z,8.22
2019-04-06T04:59:34.602Z,9.42
2019-04-06T05:04:43.657Z,10.06
2019-04-06T05:09:52.781Z,9.24
2019-04-06T05:15:01.857Z,9.11
2019-04-06T05:20:13.058Z,9.57
2019-04-06T05:25:12.347Z,8.90
2019-04-06T05:30:20.822Z,8.07
2019-04-06T05:35:29.869Z,9.31
2019-04-06T05:40:38.993Z,8.25
2019-04-06T05:45:48.041Z,7.71
2019-04-06T05:50:57.221Z,9.22
2019-04-06T05:56:06.298Z,7.93
2019-04-06T06:01:15.414Z,7.34
2019-04-06T06:06:24.637Z,6.89
2019-04-06T06:11:33.823Z,6.78
2019-04-06T06:16:42.705Z,6.26
2019-04-06T06:21:51.814Z,6.20
2019-04-06T06:27:00.963Z,5.85
2019-04-06T06:32:10.026Z,6.29
2019-04-06T06:37:19.100Z,5.60
2019-04-06T06:42:28.452Z,5.33
2019-04-06T06:47:36.861Z,5.38
2019-04-06T06:52:45.967Z,5.30
2019-04-06T06:57:55.023Z,4.99
2019-04-06T07:03:04.146Z,4.83
2019-04-06T07:08:13.191Z,4.59
2019-04-06T07:13:22.303Z,4.97
2019-04-06T07:18:31.346Z,4.41
2019-04-06T07:23:40.515Z,5.38
2019-04-06T07:28:49.577Z,4.61
2019-04-06T07:33:58.760Z,5.17
2019-04-06T07:39:07.809Z,5.21
2019-04-06T07:44:17.203Z,6.18
2019-04-06T07:49:26.269Z,7.16
2019-04-06T07:54:35.393Z,7.43
2019-04-06T07:59:44.637Z,5.23
2019-04-06T08:04:53.638Z,7.24
2019-04-06T08:10:02.915Z,9.17
2019-04-06T08:15:12.162Z,5.56
2019-04-06T08:20:21.028Z,7.15
2019-04-06T08:25:30.153Z,5.81
2019-04-06T08:30:45.318Z,6.03
2019-04-06T08:35:48.171Z,6.22
2019-04-06T08:40:57.699Z,7.46
2019-04-06T08:45:56.602Z,11.49
2019-04-06T08:51:05.876Z,13.94
2019-04-06T08:56:16.047Z,13.69
2019-04-06T09:01:15.037Z,12.49
2019-04-06T09:06:24.151Z,12.11
2019-04-06T09:11:33.218Z,10.52
2019-04-06T09:16:42.322Z,10.79
2019-04-06T09:21:50.056Z,10.18
2019-04-06T09:26:59.410Z,11.49
2019-04-06T09:32:08.576Z,10.56
2019-04-06T09:37:17.465Z,10.56
2019-04-06T09:42:26.525Z,10.94
2019-04-06T09:47:35.685Z,10.83
2019-04-06T09:52:44.702Z,10.52
2019-04-06T09:57:53.881Z,11.79
2019-04-06T10:03:02.922Z,11.88
2019-04-06T10:08:12.294Z,12.17
2019-04-06T10:13:21.242Z,11.50
2019-04-06T10:18:30.366Z,12.42
2019-04-06T10:23:39.430Z,11.09
2019-04-06T10:28:48.601Z,11.78
2019-04-06T10:33:57.606Z,11.96
2019-04-06T10:39:06.774Z,12.37
2019-04-06T10:44:16.110Z,12.15
2019-04-06T10:49:25.178Z,11.91
2019-04-06T10:54:34.539Z,12.46
2019-04-06T10:59:42.983Z,12.30
2019-04-06T11:04:51.893Z,12.53
2019-04-06T11:10:01.015Z,11.74
2019-04-06T11:15:10.062Z,12.03
2019-04-06T11:20:19.190Z,11.37
2019-04-06T11:25:28.249Z,10.74
2019-04-06T11:30:37.404Z,10.62
2019-04-06T11:35:46.446Z,10.92
2019-04-06T11:40:55.567Z,10.51
2019-04-06T11:46:04.789Z,10.76
2019-04-06T11:51:14.196Z,10.80
2019-04-06T11:56:23.084Z,10.29
2019-04-06T12:01:32.451Z,10.63
2019-04-06T12:06:41.477Z,10.25
2019-04-06T12:11:50.682Z,10.17
2019-04-06T12:16:59.767Z,10.65
2019-04-06T12:22:08.865Z,10.41
2019-04-06T12:27:18.489Z,10.14
2019-04-06T12:32:27.671Z,10.42
2019-04-06T12:37:35.977Z,10.37
2019-04-06T12:42:45.186Z,9.58
2019-04-06T12:47:54.155Z,9.86
2019-04-06T12:53:03.493Z,9.91
2019-04-06T12:58:12.498Z,9.41
2019-04-06T13:03:21.864Z,9.19
2019-04-06T13:08:30.722Z,8.88
2019-04-06T13:13:39.877Z,9.09
2019-04-06T13:18:49.062Z,8.99
2019-04-06T13:23:58.194Z,9.07
2019-04-06T13:29:07.398Z,8.95
2019-04-06T13:34:17.131Z,8.57
2019-04-06T13:39:26.217Z,8.95
2019-04-06T13:44:35.326Z,8.57
2019-04-06T13:49:44.379Z,7.65
2019-04-06T13:54:53.528Z,8.32
2019-04-06T14:00:02.596Z,7.65
2019-04-06T14:05:11.727Z,8.59
2019-04-06T14:10:20.889Z,8.06
2019-04-06T14:15:30.294Z,8.07
2019-04-06T14:20:38.882Z,8.43
2019-04-06T14:25:47.246Z,8.63
2019-04-06T14:30:56.578Z,8.39
2019-04-06T14:36:05.634Z,8.73
2019-04-06T14:41:16.459Z,8.06
2019-04-06T14:46:23.942Z,7.84
2019-04-06T14:51:33.035Z,7.78
2019-04-06T14:56:42.132Z,8.14
2019-04-06T15:01:57.972Z,7.91
2019-04-06T15:07:09.623Z,8.05
2019-04-06T15:12:08.479Z,7.95
2019-04-06T15:17:17.978Z,8.42
2019-04-06T15:22:26.280Z,8.23
2019-04-06T15:27:35.347Z,7.93
2019-04-06T15:32:44.689Z,7.98
2019-04-06T15:37:53.581Z,8.27
2019-04-06T15:43:02.905Z,8.21
2019-04-06T15:48:11.824Z,8.49
2019-04-06T15:53:20.942Z,8.17
2019-04-06T15:58:30.050Z,8.31
2019-04-06T16:03:39.435Z,7.97
2019-04-06T16:08:48.578Z,7.81
2019-04-06T16:13:57.633Z,8.25
2019-04-06T16:19:06.983Z,8.00
2019-04-06T16:24:15.369Z,8.04
2019-04-06T16:29:24.785Z,8.27
2019-04-06T16:34:33.064Z,8.01
2019-04-06T16:39:42.199Z,7.48
2019-04-06T16:44:51.573Z,7.55
2019-04-06T16:50:00.377Z,8.07
2019-04-06T16:55:08.541Z,7.21
2019-04-06T17:00:20.457Z,7.92
2019-04-06T17:05:27.101Z,7.02
2019-04-06T17:10:35.489Z,7.19
2019-04-06T17:15:44.552Z,7.34
2019-04-06T17:20:54.183Z,7.60
2019-04-06T17:26:02.817Z,7.56
2019-04-06T17:31:11.036Z,7.52
2019-04-06T17:36:20.312Z,7.69
2019-04-06T17:41:29.427Z,8.12
2019-04-06T17:46:38.494Z,7.57
2019-04-06T17:51:47.611Z,7.66
2019-04-06T17:56:56.666Z,8.06
2019-04-06T18:02:05.919Z,7.76
2019-04-06T18:07:15.096Z,7.51
2019-04-06T18:12:24.138Z,7.81
2019-04-06T18:17:33.130Z,7.43
2019-04-06T18:22:42.253Z,7.77
2019-04-06T18:27:51.484Z,7.68
2019-04-06T18:33:02.902Z,7.43
2019-04-06T18:38:09.135Z,7.72
2019-04-06T18:43:18.503Z,7.04
2019-04-06T18:48:27.428Z,7.68
2019-04-06T18:53:37.053Z,8.02
2019-04-06T18:58:45.245Z,8.41
2019-04-06T19:03:54.386Z,8.34
2019-04-06T19:09:03.471Z,8.14
2019-04-06T19:14:12.601Z,7.94
2019-04-06T19:19:21.658Z,8.34
2019-04-06T19:24:30.830Z,8.16
2019-04-06T19:29:39.874Z,8.02
2019-04-06T19:34:49.080Z,8.42
2019-04-06T19:39:58.120Z,8.03
2019-04-06T19:45:07.290Z,8.40
2019-04-06T19:50:16.409Z,8.43
2019-04-06T19:55:25.601Z,8.20
2019-04-06T20:00:34.766Z,8.60
2019-04-06T20:05:43.885Z,8.71
2019-04-06T20:10:53.126Z,8.53
2019-04-06T20:16:02.043Z,8.61
2019-04-06T20:21:10.161Z,7.96
2019-04-06T20:26:19.665Z,8.80
2019-04-06T20:31:28.938Z,8.08
2019-04-06T20:36:37.332Z,8.80
2019-04-06T20:41:46.524Z,9.23
2019-04-06T20:46:55.814Z,8.23
2019-04-06T20:52:04.771Z,9.31
2019-04-06T20:57:14.343Z,9.17
2019-04-06T21:02:22.654Z,8.59
2019-04-06T21:07:31.634Z,9.42
2019-04-06T21:12:40.695Z,8.99
2019-04-06T21:17:50.632Z,9.19
2019-04-06T21:22:58.645Z,9.22
2019-04-06T21:28:07.914Z,9.27
2019-04-06T21:33:17.105Z,8.99
2019-04-06T21:38:26.712Z,9.43
2019-04-06T21:43:34.773Z,9.49
2019-04-06T21:48:44.073Z,8.22
2019-04-06T21:53:53.032Z,8.37
2019-04-06T21:59:02.733Z,8.58
2019-04-06T22:04:22.178Z,8.36
2019-04-06T22:09:19.471Z,7.88
2019-04-06T22:14:28.539Z,7.32
2019-04-06T22:19:38.232Z,6.85
2019-04-06T22:24:46.311Z,6.34
2019-04-06T22:29:55.522Z,6.30
2019-04-06T22:35:04.518Z,5.82
2019-04-06T22:40:14.226Z,6.26
2019-04-06T22:45:22.318Z,5.78
2019-04-06T22:50:31.457Z,5.89
2019-04-06T22:55:40.510Z,5.76
2019-04-06T23:00:50.372Z,5.57
2019-04-06T23:05:58.462Z,5.75
2019-04-06T23:11:06.871Z,5.31
2019-04-06T23:16:15.938Z,5.61
2019-04-06T23:21:25.072Z,5.21
2019-04-06T23:26:34.549Z,5.16
2019-04-06T23:31:42.989Z,5.00
2019-04-06T23:36:52.241Z,4.91
2019-04-06T23:42:01.211Z,5.00
2019-04-06T23:47:10.267Z,5.39
2019-04-06T23:52:19.519Z,4.79
2019-04-06T23:57:29.140Z,4.80
